Time;durP1;ratioP1;P1;durP2;ratioP2;P2;SDS_P1;SDS_P2;PMS_P1;PMS_P2;Temp;Humidity;BMP_temperature;BMP_pressure;BME280_temperature;BME280_humidity;BME280_pressure;Samples;Min_cycle;Max_cycle;Signal;HPM_P1;HPM_P2
2023/01/04 00:00:21;;;;;;;21.75;13.18;;;;;;;4.56;100.00;101590.56;20858922;28;20056;-75
2023/01/04 00:10:22;;;;;;;25.02;15.68;;;;;;;4.48;100.00;101584.28;20859284;28;20081;-75
2023/01/04 00:20:23;;;;;;;26.67;15.70;;;;;;;4.45;100.00;101589.38;20861839;28;20425;-75
2023/01/04 00:30:25;;;;;;;31.70;17.08;;;;;;;4.51;100.00;101590.44;20855889;28;20497;-75
2023/01/04 00:40:26;;;;;;;29.85;16.67;;;;;;;4.46;100.00;101584.25;20857948;28;20049;-75
2023/01/04 00:50:27;;;;;;;28.88;17.02;;;;;;;4.44;100.00;101579.84;20857048;28;20053;-76
2023/01/04 01:00:28;;;;;;;33.67;18.60;;;;;;;4.33;100.00;101559.69;20856431;28;20049;-76
2023/01/04 01:10:30;;;;;;;31.80;17.73;;;;;;;4.14;100.00;101559.13;20856813;28;20053;-75
2023/01/04 01:20:31;;;;;;;34.90;19.40;;;;;;;4.03;100.00;101556.22;20856019;28;20103;-76
2023/01/04 01:30:32;;;;;;;35.80;20.70;;;;;;;4.03;100.00;101556.22;20855106;28;20049;-76
2023/01/04 01:40:33;;;;;;;36.10;20.70;;;;;;;4.21;100.00;101548.06;20863895;28;20045;-75
2023/01/04 01:50:35;;;;;;;35.72;20.35;;;;;;;4.40;100.00;101550.34;20870068;28;20045;-76
2023/01/04 02:00:36;;;;;;;36.72;20.75;;;;;;;4.56;100.00;101551.69;20869362;28;20040;-76
2023/01/04 02:10:37;;;;;;;29.30;17.17;;;;;;;4.53;100.00;101543.81;20868971;28;20111;-76
2023/01/04 02:20:39;;;;;;;24.38;15.30;;;;;;;4.50;100.00;101528.13;20867558;28;20045;-76
2023/01/04 02:30:40;;;;;;;21.48;13.23;;;;;;;4.49;100.00;101510.84;20864805;28;20103;-76
2023/01/04 02:40:41;;;;;;;19.55;10.95;;;;;;;4.59;100.00;101497.28;20866259;28;20394;-76
2023/01/04 02:50:42;;;;;;;21.70;12.32;;;;;;;4.55;100.00;101514.50;20865066;28;20049;-76
2023/01/04 03:06:14;;;;;;;27.48;15.73;;;;;;;4.48;100.00;101524.66;20863405;28;20099;-76
2023/01/04 03:12:30;;;;;;;27.20;16.13;;;;;;;4.24;100.00;101504.97;20861730;28;20050;-76
2023/01/04 03:21:26;;;;;;;30.27;14.98;;;;;;;4.24;100.00;101489.44;20864473;28;20080;-75
2023/01/04 03:52:08;;;;;;;39.50;18.17;;;;;;;4.62;100.00;101443.75;20859693;28;20046;-75
2023/01/04 04:02:12;;;;;;;41.05;19.48;;;;;;;4.61;100.00;101434.22;20861193;28;20132;-74
2023/01/04 04:12:14;;;;;;;;;;;;;;;4.73;100.00;101425.88;20868099;28;20053;-73
2023/01/04 04:22:15;;;;;;;44.08;18.65;;;;;;;4.85;100.00;101408.00;20859418;28;20051;-74
2023/01/04 04:32:16;;;;;;;36.22;17.85;;;;;;;4.92;100.00;101401.22;20857104;28;20076;-73
2023/01/04 04:42:17;;;;;;;34.22;16.67;;;;;;;5.26;100.00;101389.88;20857501;28;20410;-74
2023/01/04 04:52:19;;;;;;;30.27;14.68;;;;;;;5.29;100.00;101379.56;20857922;28;20394;-74
2023/01/04 05:02:20;;;;;;;24.02;12.45;;;;;;;5.46;100.00;101368.66;20856316;28;20045;-73
2023/01/04 05:22:42;;;;;;;20.50;10.13;;;;;;;5.77;100.00;101368.44;20871816;28;20049;-73
2023/01/04 05:32:43;;;;;;;22.15;9.80;;;;;;;5.80;100.00;101365.91;20870424;28;20050;-75
2023/01/04 05:42:44;;;;;;;18.00;8.77;;;;;;;5.83;100.00;101359.88;20871284;28;20498;-73
2023/01/04 05:52:46;;;;;;;15.85;8.60;;;;;;;5.90;100.00;101351.38;20870563;28;20057;-74
2023/01/04 06:02:47;;;;;;;18.85;8.63;;;;;;;5.91;100.00;101350.50;20866969;28;20080;-73
2023/01/04 06:12:48;;;;;;;15.63;7.68;;;;;;;5.97;100.00;101349.78;20867837;28;20482;-74
2023/01/04 06:22:50;;;;;;;11.38;6.55;;;;;;;6.05;100.00;101325.66;20866949;28;20053;-74
2023/01/04 06:32:51;;;;;;;11.15;6.20;;;;;;;6.11;100.00;101317.09;20864719;28;20379;-74
2023/01/04 06:42:52;;;;;;;8.60;4.32;;;;;;;6.18;100.00;101318.97;20866582;28;20056;-74
2023/01/04 06:52:53;;;;;;;8.48;4.43;;;;;;;6.27;100.00;101316.50;20863797;28;20056;-74
2023/01/04 07:02:55;;;;;;;7.93;3.30;;;;;;;6.46;100.00;101315.06;20863018;28;20052;-74
2023/01/04 07:13:15;;;;;;;7.35;3.78;;;;;;;6.46;100.00;101319.41;20862080;28;20155;-75
2023/01/04 07:23:17;;;;;;;5.30;2.47;;;;;;;6.55;100.00;101309.13;20864471;28;20057;-77
2023/01/04 07:33:18;;;;;;;5.22;2.28;;;;;;;6.62;100.00;101282.38;20866430;28;20110;-77
2023/01/04 07:43:19;;;;;;;5.72;2.22;;;;;;;6.54;100.00;101277.03;20869729;28;20048;-78
2023/01/04 07:53:28;;;;;;;4.82;1.98;;;;;;;6.73;100.00;101257.38;20868263;28;20049;-77
2023/01/04 08:03:29;;;;;;;4.47;1.40;;;;;;;6.80;100.00;101238.34;20864416;28;20052;-77
2023/01/04 08:13:30;;;;;;;3.92;1.13;;;;;;;7.13;100.00;101230.09;20859952;28;20076;-76
2023/01/04 08:23:31;;;;;;;8.40;2.38;;;;;;;7.33;100.00;101240.75;20878845;23;20102;-70
2023/01/04 08:33:33;;;;;;;4.95;1.30;;;;;;;7.46;100.00;101232.19;20857697;28;20052;-70
2023/01/04 08:43:35;;;;;;;3.35;1.10;;;;;;;7.60;100.00;101214.09;20859110;28;20060;-70
2023/01/04 08:53:36;;;;;;;4.07;1.40;;;;;;;7.83;100.00;101201.25;20894213;23;20096;-80
2023/01/04 09:03:37;;;;;;;2.60;1.15;;;;;;;7.82;100.00;101194.31;20904130;28;20050;-80
2023/01/04 09:13:38;;;;;;;2.47;1.00;;;;;;;8.01;100.00;101184.03;20910908;28;20050;-80
2023/01/04 09:23:40;;;;;;;4.57;1.00;;;;;;;8.13;100.00;101190.19;20904569;28;20045;-81
2023/01/04 09:33:41;;;;;;;4.80;0.93;;;;;;;8.27;100.00;101173.75;20899912;28;20075;-81
2023/01/04 09:44:02;;;;;;;4.90;0.95;;;;;;;8.45;100.00;101176.50;20894345;28;20049;-81
2023/01/04 09:54:04;;;;;;;9.52;3.08;;;;;;;8.60;100.00;101153.09;20891302;28;20057;-80
2023/01/04 10:04:05;;;;;;;3.40;1.27;;;;;;;8.72;100.00;101145.31;20925896;28;20059;-80
2023/01/04 10:14:06;;;;;;;2.97;1.00;;;;;;;8.81;100.00;101115.72;20924387;28;20087;-81
2023/01/04 10:24:07;;;;;;;3.13;1.02;;;;;;;8.92;100.00;101140.16;20929458;28;20046;-81
2023/01/04 10:34:09;;;;;;;4.50;1.05;;;;;;;8.76;100.00;101117.47;20915632;28;20052;-81
2023/01/04 10:44:18;;;;;;;5.53;1.25;;;;;;;8.74;100.00;101137.50;20925224;28;20050;-81
2023/01/04 10:54:19;;;;;;;5.15;1.23;;;;;;;8.71;100.00;101127.03;20930539;28;20059;-82
2023/01/04 11:04:21;;;;;;;7.30;1.25;;;;;;;8.78;100.00;101118.34;20933254;28;20049;-81
2023/01/04 11:14:24;;;;;;;3.13;1.10;;;;;;;8.77;100.00;101132.28;20930570;28;20057;-81
2023/01/04 11:24:25;;;;;;;4.65;1.00;;;;;;;8.91;100.00;101101.88;20934197;28;20569;-81
2023/01/04 11:34:34;;;;;;;3.13;1.02;;;;;;;8.97;100.00;101093.16;20919997;28;20064;-81
2023/01/04 11:44:35;;;;;;;3.72;1.38;;;;;;;9.27;100.00;101102.78;20913122;28;20041;-81
2023/01/04 11:54:37;;;;;;;1.98;0.90;;;;;;;9.45;100.00;101097.56;20921956;28;20065;-82
2023/01/04 12:04:38;;;;;;;4.75;1.20;;;;;;;9.72;100.00;101101.03;20871615;28;20104;-81
2023/01/04 12:14:39;;;;;;;2.75;1.05;;;;;;;9.74;100.00;101073.13;20877319;28;20045;-81
2023/01/04 12:24:41;;;;;;;3.58;1.45;;;;;;;9.92;100.00;101046.09;20856507;28;20484;-81
2023/01/04 12:34:43;;;;;;;3.50;1.30;;;;;;;10.03;100.00;101023.38;20847744;28;20129;-80
2023/01/04 12:44:50;;;;;;;3.60;0.98;;;;;;;10.09;100.00;101022.47;20869107;28;20517;-80
2023/01/04 12:54:53;;;;;;;5.90;1.58;;;;;;;10.01;100.00;101001.56;20886809;28;20057;-81
2023/01/04 13:04:54;;;;;;;3.90;1.15;;;;;;;9.94;100.00;101008.56;20919625;28;20059;-81
2023/01/04 13:15:15;;;;;;;4.70;1.15;;;;;;;10.06;100.00;101004.16;20909582;28;20068;-81
2023/01/04 13:25:19;;;;;;;1.77;0.70;;;;;;;10.11;100.00;100989.31;20920242;28;20049;-80
2023/01/04 13:35:21;;;;;;;5.45;1.15;;;;;;;10.14;100.00;100979.69;20923666;28;20131;-81
2023/01/04 13:45:22;;;;;;;5.80;1.17;;;;;;;10.27;100.00;100965.72;21021418;28;20072;-81
2023/01/04 13:55:23;;;;;;;3.10;1.23;;;;;;;10.38;100.00;100957.81;20997044;28;20087;-82
2023/01/04 14:05:24;;;;;;;3.50;1.35;;;;;;;10.29;100.00;100973.56;20997872;28;20053;-82
2023/01/04 14:15:26;;;;;;;2.55;1.00;;;;;;;10.30;100.00;100980.56;20991508;28;20048;-80
2023/01/04 14:25:27;;;;;;;2.92;1.13;;;;;;;10.30;100.00;100979.66;21003137;28;20047;-80
2023/01/04 14:35:28;;;;;;;3.60;1.13;;;;;;;10.19;100.00;100971.84;20993494;28;20052;-81
2023/01/04 14:45:30;;;;;;;3.75;1.15;;;;;;;10.16;100.00;100977.09;21011618;28;20045;-81
2023/01/04 14:55:31;;;;;;;3.53;1.48;;;;;;;10.17;100.00;100964.00;20960373;28;20045;-82
2023/01/04 15:05:32;;;;;;;3.38;1.00;;;;;;;10.11;100.00;100932.66;20984556;28;20072;-80
2023/01/04 15:15:38;;;;;;;2.97;1.08;;;;;;;9.90;100.00;100951.91;20962996;28;20051;-81
2023/01/04 15:25:39;;;;;;;6.15;1.70;;;;;;;9.73;100.00;100946.75;20958457;28;20066;-81
2023/01/04 15:35:41;;;;;;;3.38;1.00;;;;;;;9.49;100.00;100958.16;21005429;28;20072;-82
2023/01/04 15:45:42;;;;;;;3.80;1.75;;;;;;;9.39;100.00;100945.09;21004844;28;20105;-81
2023/01/04 15:55:43;;;;;;;7.68;2.30;;;;;;;9.28;100.00;100946.84;20988612;28;20537;-82
2023/01/04 16:05:44;;;;;;;4.63;1.85;;;;;;;9.12;100.00;100940.78;21000035;28;20513;-82
2023/01/04 16:15:46;;;;;;;3.92;1.80;;;;;;;9.02;100.00;100936.47;20987714;28;20071;-82
2023/01/04 16:25:47;;;;;;;6.63;2.58;;;;;;;8.90;100.00;100932.09;20993780;28;20044;-82
2023/01/04 16:35:48;;;;;;;5.57;2.28;;;;;;;8.82;100.00;100932.09;20995316;28;20126;-82
2023/01/04 16:45:57;;;;;;;7.60;2.80;;;;;;;8.82;100.00;100921.66;20976877;28;20049;-84
2023/01/04 16:56:00;;;;;;;5.55;2.33;;;;;;;8.71;100.00;100920.78;20998903;28;20049;-83
2023/01/04 17:06:01;;;;;;;7.68;2.15;;;;;;;8.68;100.00;100926.00;21023236;28;20068;-82
2023/01/04 17:16:02;;;;;;;4.97;2.70;;;;;;;8.70;100.00;100921.66;21006193;28;20073;-81
2023/01/04 17:26:04;;;;;;;8.55;3.58;;;;;;;8.58;100.00;100911.22;21042599;28;20049;-79
2023/01/04 17:36:05;;;;;;;7.57;2.90;;;;;;;8.52;100.00;100905.97;21024630;28;20097;-82
2023/01/04 17:46:06;;;;;;;8.15;4.00;;;;;;;8.52;100.00;100895.53;21044649;28;20130;-82
2023/01/04 17:56:08;;;;;;;10.35;4.35;;;;;;;8.41;100.00;100887.72;21013565;28;20048;-80
2023/01/04 18:06:09;;;;;;;5.95;2.65;;;;;;;8.52;100.00;100880.75;20975132;28;20067;-80
2023/01/04 18:16:26;;;;;;;5.75;1.95;;;;;;;8.51;100.00;100872.94;20978266;28;20049;-80
2023/01/04 18:26:28;;;;;;;7.93;3.20;;;;;;;8.54;100.00;100880.75;21029980;28;20518;-79
2023/01/04 18:36:41;;;;;;;5.10;2.60;;;;;;;8.54;100.00;100880.75;21011831;28;20187;-81
2023/01/04 18:46:44;;;;;;;9.98;3.80;;;;;;;8.56;100.00;100889.44;20995810;28;20090;-81
2023/01/04 18:56:46;;;;;;;12.82;5.78;;;;;;;8.61;100.00;100892.94;20995698;28;20064;-81
2023/01/04 19:06:47;;;;;;;8.00;3.15;;;;;;;8.70;100.00;100872.06;20995368;28;20075;-82
2023/01/04 19:16:48;;;;;;;5.88;2.92;;;;;;;8.78;100.00;100877.28;20986920;28;20044;-82
2023/01/04 19:26:51;;;;;;;8.18;3.63;;;;;;;8.73;100.00;100882.50;21016858;28;20051;-81
2023/01/04 19:36:52;;;;;;;7.57;3.25;;;;;;;8.87;100.00;100895.56;21013672;28;20108;-80
2023/01/04 19:46:53;;;;;;;6.70;3.20;;;;;;;8.96;100.00;100896.41;20989039;28;20040;-81
2023/01/04 19:56:55;;;;;;;8.32;2.80;;;;;;;8.93;100.00;100898.16;21005563;28;20060;-80
2023/01/04 20:06:56;;;;;;;6.50;2.28;;;;;;;9.03;100.00;100885.94;20982228;28;20048;-80
2023/01/04 20:16:57;;;;;;;3.70;1.95;;;;;;;9.14;100.00;100903.34;21012800;28;20127;-81
2023/01/04 20:26:58;;;;;;;8.32;3.15;;;;;;;9.21;100.00;100919.88;21002191;28;20146;-81
2023/01/04 20:37:00;;;;;;;6.85;3.25;;;;;;;9.17;100.00;100912.91;20991606;28;20056;-80
2023/01/04 20:47:01;;;;;;;4.93;2.30;;;;;;;9.43;100.00;100942.47;20994097;28;20070;-80
2023/01/04 20:57:02;;;;;;;8.95;3.13;;;;;;;9.36;100.00;100927.69;20964967;28;20106;-79
2023/01/04 21:07:04;;;;;;;4.80;1.90;;;;;;;9.47;100.00;100918.06;20999665;28;20131;-80
2023/01/04 21:17:08;;;;;;;4.95;2.78;;;;;;;9.51;100.00;100901.50;20977307;28;20053;-81
2023/01/04 21:27:25;;;;;;;5.57;3.50;;;;;;;9.59;100.00;100904.09;20956930;28;20049;-80
2023/01/04 21:37:27;;;;;;;8.93;3.17;;;;;;;9.72;100.00;100877.00;20935189;28;20735;-81
2023/01/04 21:47:28;;;;;;;3.83;1.23;;;;;;;9.88;100.00;100872.59;20919819;28;20049;-79
2023/01/04 21:57:29;;;;;;;2.38;1.20;;;;;;;9.84;100.00;100865.63;20932634;28;20099;-80
2023/01/04 22:18:16;;;;;;;1.50;0.70;;;;;;;9.93;100.00;100834.19;21608802;23;20045;-77
2023/01/04 22:28:17;;;;;;;1.40;0.65;;;;;;;9.86;100.00;100819.41;20860879;28;20315;-75
2023/01/04 22:38:19;;;;;;;2.88;1.00;;;;;;;9.96;100.00;100794.91;20858146;28;20049;-75
2023/01/04 22:48:20;;;;;;;2.50;1.15;;;;;;;9.94;100.00;100788.84;20859517;28;20057;-75
2023/01/04 22:58:21;;;;;;;2.00;1.08;;;;;;;9.99;100.00;100815.84;20858336;28;20041;-75
2023/01/04 23:08:23;;;;;;;3.08;1.00;;;;;;;9.86;100.00;100815.91;20863660;28;20460;-76
2023/01/04 23:18:24;;;;;;;3.35;1.00;;;;;;;9.81;100.00;100809.84;20863971;28;20099;-75
2023/01/04 23:28:25;;;;;;;2.65;0.90;;;;;;;9.80;100.00;100797.66;20863874;28;20049;-76
2023/01/04 23:38:27;;;;;;;2.15;0.90;;;;;;;9.73;100.00;100789.84;20861574;28;20546;-74
2023/01/04 23:48:28;;;;;;;2.97;0.82;;;;;;;9.76;100.00;100786.34;20861565;28;20068;-75
2023/01/04 23:58:30;;;;;;;2.30;0.80;;;;;;;9.67;100.00;100791.63;20859620;28;20512;-74
